Time;durP1;ratioP1;P1;durP2;ratioP2;P2;SDS_P1;SDS_P2;PMS_P1;PMS_P2;Temp;Humidity;BMP_temperature;BMP_pressure;BME280_temperature;BME280_humidity;BME280_pressure;Samples;Min_cycle;Max_cycle;Signal;HPM_P1;HPM_P2
2021/12/30 00:01:46;;;;;;;0.00;0.00;;;9.30;99.90;;;;;;5154625;27;20043;-81
2021/12/30 00:04:12;;;;;;;0.77;0.57;;;9.30;99.90;;;;;;5153871;27;20091;-81
2021/12/30 00:06:41;;;;;;;0.40;0.40;;;9.30;99.90;;;;;;5154383;27;20394;-80
2021/12/30 00:09:14;;;;;;;0.13;0.10;;;9.20;99.90;;;;;;5154391;27;20042;-81
2021/12/30 00:11:41;;;;;;;0.00;0.00;;;9.30;99.90;;;;;;5154202;27;20073;-81
2021/12/30 00:14:07;;;;;;;0.17;0.17;;;9.20;99.90;;;;;;5136941;27;20069;-81
2021/12/30 00:16:33;;;;;;;0.43;0.43;;;9.20;99.90;;;;;;5136980;27;20051;-81
2021/12/30 00:18:59;;;;;;;0.00;0.00;;;9.20;99.90;;;;;;5136721;27;20387;-81
2021/12/30 00:21:25;;;;;;;0.55;0.55;;;9.10;99.90;;;;;;5153968;27;20050;-81
2021/12/30 00:23:51;;;;;;;1.35;1.25;;;9.10;99.90;;;;;;5154235;27;20038;-81
2021/12/30 00:26:18;;;;;;;0.38;0.35;;;9.10;99.90;;;;;;5136142;27;20063;-81
2021/12/30 00:28:43;;;;;;;2.53;1.27;;;9.10;99.90;;;;;;5154100;27;20042;-81
2021/12/30 00:31:09;;;;;;;0.00;0.00;;;9.10;99.90;;;;;;5154161;27;20061;-81
2021/12/30 00:33:35;;;;;;;0.32;0.20;;;9.10;99.90;;;;;;5154128;27;20054;-81
2021/12/30 00:36:07;;;;;;;0.00;0.00;;;9.10;99.90;;;;;;5154162;27;20374;-81
2021/12/30 00:38:34;;;;;;;1.15;0.75;;;9.00;99.90;;;;;;5155785;27;20099;-81
2021/12/30 00:40:59;;;;;;;0.73;0.73;;;9.00;99.90;;;;;;5157632;27;20038;-81
2021/12/30 00:43:25;;;;;;;0.00;0.00;;;8.90;99.90;;;;;;5157783;27;20384;-81
2021/12/30 00:45:51;;;;;;;0.10;0.10;;;9.00;99.90;;;;;;5157888;27;20043;-81
2021/12/30 00:48:17;;;;;;;0.00;0.00;;;8.90;99.90;;;;;;5157621;27;20427;-81
2021/12/30 00:50:44;;;;;;;0.00;0.00;;;8.90;99.90;;;;;;5157524;27;20554;-81
2021/12/30 00:53:11;;;;;;;0.00;0.00;;;8.90;99.90;;;;;;5157652;27;20046;-81
2021/12/30 00:55:38;;;;;;;2.20;0.65;;;8.90;99.90;;;;;;5157478;27;20042;-81
2021/12/30 00:58:05;;;;;;;0.00;0.00;;;8.80;99.90;;;;;;5157614;27;20043;-81
2021/12/30 01:00:33;;;;;;;0.20;0.20;;;8.80;99.90;;;;;;5157438;27;20129;-81
2021/12/30 01:02:59;;;;;;;0.30;0.10;;;8.80;99.90;;;;;;5157431;27;20042;-81
2021/12/30 01:05:24;;;;;;;0.00;0.00;;;8.80;99.90;;;;;;5139486;27;20057;-81
2021/12/30 01:07:51;;;;;;;0.03;0.00;;;8.70;99.90;;;;;;5139995;27;20058;-81
2021/12/30 01:10:20;;;;;;;0.00;0.00;;;8.70;99.90;;;;;;5158029;27;20043;-81
2021/12/30 01:12:47;;;;;;;0.10;0.10;;;8.70;99.90;;;;;;5157850;27;20073;-81
2021/12/30 01:15:17;;;;;;;0.43;0.28;;;8.70;99.90;;;;;;5139971;27;20047;-81
2021/12/30 01:17:55;;;;;;;0.40;0.40;;;8.70;99.90;;;;;;5139814;27;20506;-81
2021/12/30 01:20:21;;;;;;;1.67;0.65;;;8.70;99.90;;;;;;5156868;27;20549;-81
2021/12/30 01:22:49;;;;;;;0.30;0.30;;;8.70;99.90;;;;;;5157199;27;20152;-81
2021/12/30 01:25:16;;;;;;;0.47;0.20;;;8.70;99.90;;;;;;5139324;27;20062;-81
2021/12/30 01:27:42;;;;;;;0.20;0.20;;;8.60;99.90;;;;;;5157415;27;20390;-81
2021/12/30 01:30:12;;;;;;;0.25;0.25;;;8.60;99.90;;;;;;5157034;27;20042;-81
2021/12/30 01:32:38;;;;;;;0.22;0.22;;;8.60;99.90;;;;;;5156847;27;20047;-81
2021/12/30 01:35:05;;;;;;;0.00;0.00;;;8.60;99.90;;;;;;5139520;27;20042;-81
2021/12/30 01:37:31;;;;;;;1.27;0.82;;;8.60;99.90;;;;;;5139678;27;20046;-81
2021/12/30 01:39:57;;;;;;;3.38;0.20;;;8.60;99.90;;;;;;5156480;27;20125;-81
2021/12/30 01:42:23;;;;;;;3.15;0.88;;;8.60;99.90;;;;;;5138379;27;20133;-81
2021/12/30 01:44:49;;;;;;;1.10;0.65;;;8.60;99.90;;;;;;5156551;27;20075;-81
2021/12/30 01:47:15;;;;;;;0.17;0.17;;;8.60;99.90;;;;;;5156247;27;20079;-81
2021/12/30 01:49:40;;;;;;;0.50;0.50;;;8.60;99.90;;;;;;5154352;27;20046;-81
2021/12/30 01:52:06;;;;;;;0.00;0.00;;;8.60;99.90;;;;;;5139032;27;20149;-80
2021/12/30 01:54:32;;;;;;;0.00;0.00;;;8.60;99.90;;;;;;5156432;27;20035;-81
2021/12/30 01:57:02;;;;;;;0.00;0.00;;;8.50;99.90;;;;;;5156241;27;20038;-81
2021/12/30 01:59:28;;;;;;;0.20;0.20;;;8.60;99.90;;;;;;5156178;27;20050;-81
2021/12/30 02:01:56;;;;;;;0.10;0.10;;;8.60;99.90;;;;;;5138762;27;20382;-81
2021/12/30 02:04:24;;;;;;;1.02;0.47;;;8.70;99.90;;;;;;5155932;27;20122;-81
2021/12/30 02:06:49;;;;;;;3.70;1.75;;;8.70;99.90;;;;;;5138515;27;20137;-81
2021/12/30 02:09:17;;;;;;;0.47;0.47;;;8.70;99.90;;;;;;5156100;27;20138;-81
2021/12/30 02:11:43;;;;;;;0.55;0.35;;;8.80;99.90;;;;;;5138196;27;20065;-81
2021/12/30 02:14:09;;;;;;;0.55;0.52;;;8.80;99.90;;;;;;5156011;27;20043;-81
2021/12/30 02:16:34;;;;;;;3.00;0.52;;;8.90;99.90;;;;;;5138438;27;20043;-81
2021/12/30 02:19:00;;;;;;;0.17;0.17;;;8.90;99.90;;;;;;5138215;27;20111;-81
2021/12/30 02:21:26;;;;;;;0.20;0.20;;;9.00;99.90;;;;;;5155900;27;20035;-81
2021/12/30 02:23:51;;;;;;;0.10;0.10;;;9.00;99.90;;;;;;5156299;27;20610;-81
2021/12/30 02:26:19;;;;;;;0.15;0.15;;;9.00;99.90;;;;;;5155821;27;20099;-81
2021/12/30 02:28:45;;;;;;;0.40;0.40;;;9.00;99.90;;;;;;5155863;27;20086;-81
2021/12/30 02:31:27;;;;;;;11.38;1.10;;;9.10;99.90;;;;;;5138260;27;20043;-81
2021/12/30 02:33:55;;;;;;;1.02;0.70;;;9.10;99.90;;;;;;5138345;27;20050;-81
2021/12/30 02:36:33;;;;;;;0.80;0.80;;;9.10;99.90;;;;;;5137443;27;20107;-81
2021/12/30 02:39:02;;;;;;;1.73;0.75;;;9.20;99.90;;;;;;5137794;27;20118;-81
2021/12/30 02:41:32;;;;;;;0.05;0.05;;;9.20;99.90;;;;;;5155306;27;20043;-81
2021/12/30 02:43:59;;;;;;;15.68;2.70;;;9.20;99.90;;;;;;5138078;27;20401;-81
2021/12/30 02:46:28;;;;;;;4.43;2.85;;;9.30;99.90;;;;;;5138308;27;20116;-81
2021/12/30 02:48:55;;;;;;;1.02;0.17;;;9.30;99.90;;;;;;5155361;27;20558;-81
2021/12/30 02:51:21;;;;;;;1.85;1.60;;;9.40;99.90;;;;;;5155311;27;20389;-81
2021/12/30 02:53:48;;;;;;;0.00;0.00;;;9.30;99.90;;;;;;5155239;27;20083;-81
2021/12/30 02:56:13;;;;;;;3.50;0.90;;;9.40;99.90;;;;;;5155137;27;20534;-81
2021/12/30 02:58:39;;;;;;;0.95;0.85;;;9.40;99.90;;;;;;5154931;27;20759;-81
2021/12/30 03:01:12;;;;;;;0.75;0.00;;;9.40;99.90;;;;;;5154782;27;20123;-81
2021/12/30 03:03:38;;;;;;;0.10;0.10;;;9.50;99.90;;;;;;5154860;27;20080;-81
2021/12/30 03:06:07;;;;;;;0.10;0.10;;;9.50;99.90;;;;;;5154678;27;20394;-81
2021/12/30 03:08:33;;;;;;;0.10;0.10;;;9.60;99.90;;;;;;5155253;27;20039;-81
2021/12/30 03:10:59;;;;;;;0.20;0.20;;;9.50;99.90;;;;;;5137265;27;20055;-81
2021/12/30 03:13:31;;;;;;;0.10;0.10;;;9.60;99.90;;;;;;5155175;27;20042;-81
2021/12/30 03:16:03;;;;;;;0.93;0.57;;;9.50;99.90;;;;;;5155369;27;20092;-81
2021/12/30 03:18:31;;;;;;;0.00;0.00;;;9.60;99.90;;;;;;5154887;27;20518;-81
2021/12/30 03:20:57;;;;;;;0.88;0.45;;;9.60;99.90;;;;;;5154720;27;20042;-81
2021/12/30 03:23:23;;;;;;;0.00;0.00;;;9.60;99.90;;;;;;5137578;27;20043;-81
2021/12/30 03:25:49;;;;;;;0.00;0.00;;;9.60;99.90;;;;;;5155108;27;20487;-81
2021/12/30 03:28:14;;;;;;;0.10;0.10;;;9.70;99.90;;;;;;5154676;27;20039;-81
2021/12/30 03:30:40;;;;;;;0.10;0.10;;;9.70;99.90;;;;;;5137242;27;20038;-81
2021/12/30 03:33:06;;;;;;;0.28;0.13;;;9.70;99.90;;;;;;5154406;27;20043;-81
2021/12/30 03:35:32;;;;;;;0.32;0.28;;;9.70;99.90;;;;;;5154674;27;20038;-81
2021/12/30 03:37:57;;;;;;;0.65;0.52;;;9.70;99.90;;;;;;5154466;27;20065;-81
2021/12/30 03:40:24;;;;;;;0.00;0.00;;;9.80;99.90;;;;;;5154243;27;20038;-81
2021/12/30 03:42:50;;;;;;;0.32;0.32;;;9.80;99.90;;;;;;5154701;27;20077;-81
2021/12/30 03:45:16;;;;;;;0.90;0.40;;;9.80;99.90;;;;;;5154740;27;20039;-81
2021/12/30 03:47:44;;;;;;;0.15;0.10;;;9.90;99.90;;;;;;5137657;27;20047;-81
2021/12/30 03:50:24;;;;;;;0.30;0.30;;;9.90;99.90;;;;;;5154448;27;20449;-81
2021/12/30 03:52:53;;;;;;;0.52;0.38;;;9.90;99.90;;;;;;5154686;27;20043;-81
2021/12/30 03:55:21;;;;;;;0.00;0.00;;;9.80;99.90;;;;;;5154444;27;20038;-81
2021/12/30 03:57:49;;;;;;;0.60;0.60;;;9.90;99.90;;;;;;5154879;27;20058;-81
2021/12/30 04:00:15;;;;;;;2.47;0.30;;;9.90;99.90;;;;;;5137573;27;20452;-81
2021/12/30 04:02:41;;;;;;;0.00;0.00;;;9.80;99.90;;;;;;5154228;27;20451;-81
2021/12/30 04:05:08;;;;;;;0.00;0.00;;;9.90;99.90;;;;;;5153928;27;20050;-81
2021/12/30 04:07:34;;;;;;;0.63;0.45;;;9.90;99.90;;;;;;5154100;27;20057;-81
2021/12/30 04:09:59;;;;;;;1.40;0.70;;;9.90;99.90;;;;;;5154374;27;20034;-81
2021/12/30 04:12:25;;;;;;;0.00;0.00;;;9.90;99.90;;;;;;5154262;27;20466;-81
2021/12/30 04:14:50;;;;;;;0.00;0.00;;;10.00;99.90;;;;;;5158452;27;20494;-81
2021/12/30 04:17:16;;;;;;;2.80;0.90;;;10.00;99.90;;;;;;5158251;27;20034;-81
2021/12/30 04:19:42;;;;;;;0.52;0.52;;;10.00;99.90;;;;;;5158135;27;20038;-81
2021/12/30 04:22:08;;;;;;;0.00;0.00;;;10.00;99.90;;;;;;5140477;27;20043;-81
2021/12/30 04:24:33;;;;;;;0.00;0.00;;;10.10;99.90;;;;;;5158179;27;20046;-81
2021/12/30 04:26:59;;;;;;;0.05;0.05;;;10.10;99.90;;;;;;5158096;27;20054;-81
2021/12/30 04:29:25;;;;;;;0.10;0.10;;;10.10;99.90;;;;;;5158258;27;20046;-81
2021/12/30 04:31:51;;;;;;;0.10;0.10;;;10.20;99.90;;;;;;5158200;27;20126;-81
2021/12/30 04:34:16;;;;;;;0.80;0.63;;;10.20;99.90;;;;;;5158094;27;20047;-81
2021/12/30 04:36:42;;;;;;;0.70;0.20;;;10.20;99.90;;;;;;5157789;27;20446;-81
2021/12/30 04:39:09;;;;;;;1.13;0.52;;;10.20;99.90;;;;;;5158123;27;20042;-81
2021/12/30 04:41:34;;;;;;;2.83;2.28;;;10.30;99.90;;;;;;5157753;27;20061;-81
2021/12/30 04:44:00;;;;;;;1.20;0.90;;;10.30;99.90;;;;;;5157450;27;20465;-81
2021/12/30 04:46:26;;;;;;;1.35;0.65;;;10.30;99.90;;;;;;5157803;27;20053;-81
2021/12/30 04:48:52;;;;;;;0.22;0.22;;;10.30;99.90;;;;;;5157732;27;20042;-81
2021/12/30 04:51:18;;;;;;;0.20;0.20;;;10.30;99.90;;;;;;5157689;27;20042;-81
2021/12/30 04:53:44;;;;;;;0.05;0.05;;;10.30;99.90;;;;;;5140357;27;20146;-81
2021/12/30 04:56:10;;;;;;;0.00;0.00;;;10.30;99.90;;;;;;5139735;27;20069;-81
2021/12/30 04:58:36;;;;;;;0.00;0.00;;;10.40;99.90;;;;;;5140182;27;20055;-81
2021/12/30 05:01:03;;;;;;;0.20;0.20;;;10.30;99.90;;;;;;5157474;27;20409;-81
2021/12/30 05:03:28;;;;;;;0.00;0.00;;;10.40;99.90;;;;;;5140376;27;20533;-81
2021/12/30 05:05:55;;;;;;;0.30;0.30;;;10.30;99.90;;;;;;5138985;27;20133;-81
2021/12/30 05:08:23;;;;;;;0.00;0.00;;;10.40;99.90;;;;;;5157288;27;20047;-81
2021/12/30 05:10:50;;;;;;;0.03;0.03;;;10.40;99.90;;;;;;5157415;27;20035;-81
2021/12/30 05:13:17;;;;;;;0.05;0.05;;;10.40;99.90;;;;;;5157249;27;20481;-81
2021/12/30 05:15:43;;;;;;;0.25;0.25;;;10.40;99.90;;;;;;5139820;27;20087;-82
2021/12/30 05:18:11;;;;;;;0.00;0.00;;;10.40;99.90;;;;;;5139970;27;20057;-81
2021/12/30 05:20:38;;;;;;;1.17;0.63;;;10.50;99.90;;;;;;5139932;27;20096;-81
2021/12/30 05:23:05;;;;;;;0.00;0.00;;;10.50;99.90;;;;;;5157181;27;20478;-81
2021/12/30 05:25:31;;;;;;;0.10;0.00;;;10.50;99.90;;;;;;5139470;27;20043;-81
2021/12/30 05:27:57;;;;;;;0.38;0.20;;;10.50;99.90;;;;;;5139729;27;20047;-81
2021/12/30 05:30:23;;;;;;;0.25;0.10;;;10.50;99.90;;;;;;5156985;27;20038;-81
2021/12/30 05:32:50;;;;;;;0.10;0.10;;;10.50;99.90;;;;;;5139638;27;20125;-81
2021/12/30 05:35:16;;;;;;;0.20;0.00;;;10.50;99.90;;;;;;5139646;27;20103;-81
2021/12/30 05:37:43;;;;;;;0.00;0.00;;;10.50;99.90;;;;;;5157444;27;20038;-82
2021/12/30 05:40:12;;;;;;;0.43;0.00;;;10.50;99.90;;;;;;5156943;27;20393;-81
2021/12/30 05:42:37;;;;;;;0.22;0.22;;;10.60;99.90;;;;;;5157301;27;20043;-82
2021/12/30 05:45:04;;;;;;;0.30;0.20;;;10.60;99.90;;;;;;5139084;27;20099;-82
2021/12/30 05:47:30;;;;;;;0.00;0.00;;;10.60;99.90;;;;;;5156269;27;20078;-82
2021/12/30 05:49:56;;;;;;;0.00;0.00;;;10.60;99.90;;;;;;5156547;27;20081;-82
2021/12/30 05:52:22;;;;;;;0.65;0.20;;;10.70;99.90;;;;;;5139271;27;20088;-83
2021/12/30 05:54:48;;;;;;;3.30;1.13;;;10.70;99.90;;;;;;5139077;27;20070;-83
2021/12/30 05:57:13;;;;;;;0.03;0.00;;;10.70;99.90;;;;;;5138942;27;20398;-82
2021/12/30 05:59:39;;;;;;;0.00;0.00;;;10.70;99.90;;;;;;5156252;27;20416;-82
2021/12/30 06:02:05;;;;;;;1.08;1.00;;;10.80;99.90;;;;;;5138599;27;20443;-82
2021/12/30 06:04:31;;;;;;;1.55;0.77;;;10.90;99.90;;;;;;5155755;27;20513;-83
2021/12/30 06:06:57;;;;;;;0.10;0.10;;;10.80;99.90;;;;;;5156621;27;20082;-82
2021/12/30 06:09:25;;;;;;;0.05;0.05;;;10.90;99.90;;;;;;5156211;27;20415;-82
2021/12/30 06:11:51;;;;;;;2.10;1.35;;;11.00;99.90;;;;;;5155136;27;20058;-82
2021/12/30 06:14:17;;;;;;;0.25;0.00;;;10.90;99.90;;;;;;5155975;27;20054;-82
2021/12/30 06:16:43;;;;;;;0.10;0.10;;;11.00;99.90;;;;;;5138729;27;20047;-82
2021/12/30 06:19:08;;;;;;;0.22;0.05;;;11.10;99.90;;;;;;5155901;27;20045;-82
2021/12/30 06:21:34;;;;;;;0.20;0.05;;;11.10;99.90;;;;;;5138363;27;20041;-82
2021/12/30 06:24:00;;;;;;;0.30;0.20;;;11.10;99.90;;;;;;5156084;27;20030;-82
2021/12/30 06:26:25;;;;;;;0.25;0.25;;;11.20;99.90;;;;;;5138544;27;20038;-81
2021/12/30 06:28:51;;;;;;;0.47;0.17;;;11.20;99.90;;;;;;5138280;27;20091;-82
2021/12/30 06:31:17;;;;;;;0.90;0.30;;;11.20;99.90;;;;;;5155779;27;20058;-82
2021/12/30 06:33:43;;;;;;;2.50;0.75;;;11.20;99.90;;;;;;5154659;27;20057;-81
2021/12/30 06:36:09;;;;;;;0.10;0.00;;;11.30;99.90;;;;;;5137160;27;20141;-82
2021/12/30 06:38:35;;;;;;;0.00;0.00;;;11.30;99.90;;;;;;5155763;27;20039;-81
2021/12/30 06:41:02;;;;;;;0.90;0.40;;;11.30;99.90;;;;;;5138350;27;20047;-81
2021/12/30 06:43:28;;;;;;;0.38;0.38;;;11.30;99.90;;;;;;5155462;27;20042;-81
2021/12/30 06:45:54;;;;;;;0.10;0.10;;;11.30;99.90;;;;;;5155098;27;20077;-81
2021/12/30 06:48:20;;;;;;;0.35;0.10;;;11.40;99.90;;;;;;5137722;27;20094;-80
2021/12/30 06:50:51;;;;;;;0.38;0.10;;;11.40;99.90;;;;;;5155373;27;20054;-80
2021/12/30 06:53:22;;;;;;;0.35;0.35;;;11.50;99.90;;;;;;5155425;27;20083;-83
2021/12/30 06:55:48;;;;;;;0.20;0.20;;;11.30;99.90;;;;;;5151364;27;20059;-81
2021/12/30 06:58:15;;;;;;;0.57;0.25;;;11.40;99.90;;;;;;5123283;27;20082;-81
2021/12/30 07:00:41;;;;;;;0.03;0.03;;;11.40;99.90;;;;;;5149444;27;20047;-82
2021/12/30 07:03:07;;;;;;;0.15;0.15;;;11.40;99.90;;;;;;5137369;27;20598;-82
2021/12/30 07:05:33;;;;;;;1.35;0.32;;;11.50;99.90;;;;;;5154043;27;20100;-83
2021/12/30 07:08:00;;;;;;;0.05;0.05;;;11.40;99.90;;;;;;5136648;27;20057;-84
2021/12/30 07:10:26;;;;;;;0.35;0.10;;;11.50;99.90;;;;;;5154884;27;20078;-84
2021/12/30 07:12:52;;;;;;;0.10;0.10;;;11.50;99.90;;;;;;5155674;27;20512;-85
2021/12/30 07:15:18;;;;;;;0.03;0.03;;;11.50;99.90;;;;;;5125344;27;20039;-86
2021/12/30 07:17:43;;;;;;;0.80;0.80;;;11.50;99.90;;;;;;5138561;27;20156;-85
2021/12/30 07:20:10;;;;;;;1.98;0.50;;;11.50;99.90;;;;;;5141901;27;20121;-85
2021/12/30 07:22:36;;;;;;;0.00;0.00;;;11.50;99.90;;;;;;5123409;27;20038;-85
2021/12/30 07:25:03;;;;;;;0.08;0.08;;;11.50;99.90;;;;;;5150783;27;20041;-85
2021/12/30 07:27:30;;;;;;;0.22;0.22;;;11.50;99.90;;;;;;5141620;27;20045;-86
2021/12/30 07:29:57;;;;;;;0.00;0.00;;;11.50;99.90;;;;;;5138952;27;20059;-84
2021/12/30 07:32:22;;;;;;;0.30;0.13;;;11.50;99.90;;;;;;5141318;27;20200;-84
2021/12/30 07:34:48;;;;;;;0.00;0.00;;;11.50;99.90;;;;;;5118337;27;20055;-83
2021/12/30 07:37:14;;;;;;;0.90;0.52;;;11.50;99.90;;;;;;5122432;27;20049;-83
2021/12/30 07:39:44;;;;;;;0.00;0.00;;;11.60;99.90;;;;;;5148916;27;20039;-83
2021/12/30 07:42:11;;;;;;;0.00;0.00;;;11.50;99.90;;;;;;5123793;27;20506;-82
2021/12/30 07:44:37;;;;;;;0.00;0.00;;;11.50;99.90;;;;;;5130361;27;20043;-83
2021/12/30 07:47:03;;;;;;;0.00;0.00;;;11.50;99.90;;;;;;5123617;27;20055;-84
2021/12/30 07:49:29;;;;;;;0.00;0.00;;;11.60;99.90;;;;;;5149105;27;20122;-84
2021/12/30 07:51:55;;;;;;;0.00;0.00;;;11.60;99.90;;;;;;5144492;27;20139;-85
2021/12/30 07:54:21;;;;;;;0.00;0.00;;;11.60;99.90;;;;;;5127121;28;20047;-85
2021/12/30 07:56:46;;;;;;;0.00;0.00;;;11.60;99.90;;;;;;5138185;27;20062;-85
2021/12/30 07:59:12;;;;;;;0.00;0.00;;;11.60;99.90;;;;;;5146463;27;20083;-82
2021/12/30 08:01:38;;;;;;;0.30;0.22;;;11.60;99.90;;;;;;5144092;27;20401;-87
2021/12/30 08:04:04;;;;;;;0.10;0.10;;;11.60;99.90;;;;;;5123859;27;20104;-88
2021/12/30 08:06:29;;;;;;;0.10;0.10;;;11.60;99.90;;;;;;5124258;27;20489;-88
2021/12/30 08:08:55;;;;;;;0.00;0.00;;;11.60;99.90;;;;;;5141013;27;20054;-86
2021/12/30 08:11:21;;;;;;;0.00;0.00;;;11.60;99.90;;;;;;5128713;27;20038;-87
2021/12/30 08:13:47;;;;;;;0.10;0.10;;;11.60;99.90;;;;;;5145043;27;20129;-83
2021/12/30 08:16:13;;;;;;;0.00;0.00;;;11.70;99.90;;;;;;5136921;27;20141;-84
2021/12/30 08:18:40;;;;;;;0.00;0.00;;;11.70;99.90;;;;;;5136926;27;20100;-84
2021/12/30 08:21:06;;;;;;;0.00;0.00;;;11.70;99.90;;;;;;5150711;27;20375;-84
2021/12/30 08:23:32;;;;;;;0.00;0.00;;;11.70;99.90;;;;;;5143629;27;20083;-84
2021/12/30 08:25:58;;;;;;;0.10;0.05;;;11.70;99.90;;;;;;5124470;28;20051;-84
2021/12/30 08:28:25;;;;;;;0.20;0.20;;;11.80;99.90;;;;;;5133514;27;20043;-83
2021/12/30 08:30:52;;;;;;;0.00;0.00;;;11.70;99.90;;;;;;5116467;28;20058;-84
2021/12/30 08:33:18;;;;;;;0.10;0.00;;;11.70;99.90;;;;;;5133753;28;20042;-83
2021/12/30 08:35:44;;;;;;;0.00;0.00;;;11.70;99.90;;;;;;5133063;27;20047;-84
2021/12/30 08:38:10;;;;;;;0.20;0.03;;;11.80;99.90;;;;;;5134116;27;20043;-84
2021/12/30 08:40:36;;;;;;;0.20;0.00;;;11.80;99.90;;;;;;5135683;27;20043;-83
2021/12/30 08:43:03;;;;;;;0.00;0.00;;;11.80;99.90;;;;;;5137738;27;20051;-84
2021/12/30 08:45:29;;;;;;;0.43;0.20;;;11.90;99.90;;;;;;5133814;27;20058;-83
2021/12/30 08:47:54;;;;;;;0.25;0.25;;;11.80;99.90;;;;;;5154412;27;20504;-83
2021/12/30 08:50:20;;;;;;;0.00;0.00;;;11.90;99.90;;;;;;5153970;27;20043;-84
2021/12/30 08:52:47;;;;;;;0.20;0.15;;;11.90;99.90;;;;;;5136840;27;20046;-84
2021/12/30 08:55:14;;;;;;;0.00;0.00;;;12.00;99.90;;;;;;5153968;27;20042;-83
2021/12/30 08:57:41;;;;;;;0.45;0.00;;;12.00;99.90;;;;;;5153951;27;20041;-84
2021/12/30 09:00:12;;;;;;;1.85;0.05;;;12.00;99.90;;;;;;5156958;27;20031;-83
2021/12/30 09:02:38;;;;;;;0.00;0.00;;;12.10;99.90;;;;;;5157568;27;20481;-83
2021/12/30 09:05:05;;;;;;;0.00;0.00;;;12.10;99.90;;;;;;5140040;27;20094;-83
2021/12/30 09:07:30;;;;;;;0.13;0.10;;;12.10;99.90;;;;;;5140078;27;20053;-83
2021/12/30 09:09:56;;;;;;;0.45;0.45;;;12.10;99.90;;;;;;5157236;27;20043;-83
2021/12/30 09:12:24;;;;;;;0.00;0.00;;;12.30;99.90;;;;;;5139586;27;20047;-83
2021/12/30 09:14:50;;;;;;;0.00;0.00;;;12.20;99.90;;;;;;5156832;27;20058;-83
2021/12/30 09:17:15;;;;;;;0.10;0.10;;;12.30;99.90;;;;;;5139805;27;20062;-83
2021/12/30 09:19:41;;;;;;;0.00;0.00;;;12.10;99.90;;;;;;5157775;27;20125;-83
2021/12/30 09:22:07;;;;;;;0.10;0.00;;;12.20;99.90;;;;;;5139217;27;20126;-83
2021/12/30 09:24:32;;;;;;;0.10;0.10;;;12.20;99.90;;;;;;5140261;27;20046;-83
2021/12/30 09:26:59;;;;;;;0.15;0.15;;;12.20;99.90;;;;;;5153720;27;20491;-83
2021/12/30 09:29:26;;;;;;;0.00;0.00;;;12.20;99.90;;;;;;5157216;27;20216;-84
2021/12/30 09:31:52;;;;;;;0.43;0.43;;;12.20;99.90;;;;;;5139647;27;20042;-83
2021/12/30 09:34:19;;;;;;;0.25;0.15;;;12.30;99.90;;;;;;5119363;27;20051;-84
2021/12/30 09:36:44;;;;;;;0.00;0.00;;;12.20;99.90;;;;;;5118691;27;20047;-84
2021/12/30 09:39:12;;;;;;;0.10;0.00;;;12.20;99.90;;;;;;5118892;27;20058;-83
2021/12/30 09:41:41;;;;;;;0.13;0.13;;;12.20;99.90;;;;;;5135813;27;20069;-84
2021/12/30 09:44:08;;;;;;;0.17;0.17;;;12.20;99.90;;;;;;5118826;27;20060;-84
2021/12/30 09:46:35;;;;;;;0.00;0.00;;;12.30;99.90;;;;;;5135881;27;20467;-84
2021/12/30 09:49:02;;;;;;;0.80;0.20;;;12.30;99.90;;;;;;5135688;27;20436;-84
2021/12/30 09:51:27;;;;;;;0.73;0.25;;;12.30;99.90;;;;;;5135655;27;20047;-85
2021/12/30 09:53:53;;;;;;;1.05;0.52;;;12.30;99.90;;;;;;5135590;27;20398;-85
2021/12/30 09:56:19;;;;;;;0.30;0.30;;;12.30;99.90;;;;;;5119101;27;20047;-84
2021/12/30 09:58:46;;;;;;;0.30;0.30;;;12.30;99.90;;;;;;5135866;27;20054;-83
2021/12/30 10:01:11;;;;;;;0.00;0.00;;;12.30;99.90;;;;;;5135326;27;20039;-85
2021/12/30 10:03:37;;;;;;;0.10;0.10;;;12.30;99.90;;;;;;5118592;27;20049;-84
2021/12/30 10:06:12;;;;;;;0.45;0.28;;;12.30;99.90;;;;;;5117919;27;20062;-84
2021/12/30 10:08:42;;;;;;;;;;;12.30;99.90;;;;;;5136148;27;20591;-85
2021/12/30 10:11:14;;;;;;;0.00;0.00;;;12.40;99.90;;;;;;5117433;27;19919;-85
2021/12/30 10:13:53;;;;;;;0.10;0.10;;;12.30;99.90;;;;;;5118142;27;20501;-85
2021/12/30 10:16:20;;;;;;;0.03;0.03;;;12.40;99.90;;;;;;5135885;27;20051;-85
2021/12/30 10:18:55;;;;;;;0.10;0.10;;;12.40;99.90;;;;;;5118076;27;20054;-85
2021/12/30 10:21:27;;;;;;;0.00;0.00;;;12.30;99.90;;;;;;5127977;27;20039;-85
2021/12/30 10:23:56;;;;;;;0.05;0.05;;;12.40;99.90;;;;;;5137138;27;20397;-85
2021/12/30 10:26:22;;;;;;;0.43;0.38;;;12.40;99.90;;;;;;5117886;27;20046;-84
2021/12/30 10:28:51;;;;;;;0.00;0.00;;;12.40;99.90;;;;;;5117939;27;20047;-85
2021/12/30 10:31:20;;;;;;;0.20;0.20;;;12.40;99.90;;;;;;5117912;27;20047;-84
2021/12/30 10:33:51;;;;;;;0.00;0.00;;;12.50;99.90;;;;;;5135138;27;20135;-84
2021/12/30 10:36:38;;;;;;;0.00;0.00;;;12.50;99.90;;;;;;5134659;27;20134;-84
2021/12/30 10:39:31;;;;;;;24.48;1.00;;;12.40;99.90;;;;;;5135283;27;20058;-84
2021/12/30 10:42:05;;;;;;;0.00;0.00;;;12.50;99.90;;;;;;5134583;27;20142;-83
2021/12/30 10:44:52;;;;;;;0.00;0.00;;;12.50;99.90;;;;;;5117699;27;20051;-84
2021/12/30 10:47:19;;;;;;;0.00;0.00;;;12.50;99.90;;;;;;5117485;27;20051;-85
2021/12/30 10:49:57;;;;;;;7.13;0.63;;;12.60;99.90;;;;;;5135020;27;20100;-84
2021/12/30 10:52:24;;;;;;;0.10;0.00;;;12.50;99.90;;;;;;5141000;27;20393;-84
2021/12/30 10:54:50;;;;;;;0.10;0.10;;;12.60;99.90;;;;;;5123961;27;20126;-83
2021/12/30 10:57:15;;;;;;;0.25;0.25;;;12.50;99.90;;;;;;5134914;27;20143;-83
2021/12/30 10:59:43;;;;;;;0.75;0.47;;;12.50;99.90;;;;;;5149211;27;20041;-83
2021/12/30 11:02:13;;;;;;;0.05;0.05;;;12.50;99.90;;;;;;5116619;27;20094;-83
2021/12/30 11:04:53;;;;;;;1.13;0.50;;;12.50;99.90;;;;;;5134040;27;20074;-83
2021/12/30 11:07:38;;;;;;;0.30;0.30;;;12.50;99.90;;;;;;5117301;27;20054;-83
2021/12/30 11:10:05;;;;;;;0.10;0.10;;;12.50;99.90;;;;;;5121780;27;20049;-82
2021/12/30 11:12:33;;;;;;;0.25;0.25;;;12.50;99.90;;;;;;5137981;27;20045;-83
2021/12/30 11:15:05;;;;;;;0.10;0.10;;;12.50;99.90;;;;;;5138228;27;20042;-83
2021/12/30 11:17:35;;;;;;;8.88;0.75;;;12.50;99.90;;;;;;5138578;27;20042;-83
2021/12/30 11:20:06;;;;;;;5.18;1.17;;;12.50;99.90;;;;;;5153586;27;20097;-83
2021/12/30 11:22:35;;;;;;;2.28;0.63;;;12.50;99.90;;;;;;5137344;27;20045;-84
2021/12/30 11:25:04;;;;;;;2.72;0.90;;;12.50;99.90;;;;;;5137949;27;20046;-83
2021/12/30 11:27:31;;;;;;;0.20;0.20;;;12.50;99.90;;;;;;5138458;27;20049;-82
2021/12/30 11:30:14;;;;;;;0.43;0.20;;;12.60;99.90;;;;;;5128903;27;20104;-83
2021/12/30 11:32:40;;;;;;;0.55;0.22;;;12.50;99.90;;;;;;5138817;27;20438;-85
2021/12/30 11:35:08;;;;;;;0.00;0.00;;;12.50;99.90;;;;;;5136111;27;20443;-84
2021/12/30 11:37:35;;;;;;;0.75;0.38;;;12.50;99.90;;;;;;5154550;27;20050;-84
2021/12/30 11:40:06;;;;;;;0.25;0.25;;;12.50;99.90;;;;;;5154642;27;20055;-84
2021/12/30 11:42:42;;;;;;;0.25;0.25;;;12.50;99.90;;;;;;5154515;27;20039;-85
2021/12/30 11:45:25;;;;;;;10.30;1.92;;;12.50;99.90;;;;;;5137211;27;20046;-84
2021/12/30 11:47:51;;;;;;;1.27;1.08;;;12.50;99.90;;;;;;5154482;27;20088;-85
2021/12/30 11:50:30;;;;;;;1.45;1.25;;;12.50;99.90;;;;;;5137103;27;20134;-84
2021/12/30 11:53:03;;;;;;;1.25;0.63;;;12.50;99.90;;;;;;5154584;27;20180;-85
2021/12/30 11:55:46;;;;;;;0.20;0.20;;;12.40;99.90;;;;;;5154056;27;20094;-84
2021/12/30 11:58:27;;;;;;;0.17;0.08;;;12.50;99.90;;;;;;5154063;27;20513;-84
2021/12/30 12:01:01;;;;;;;0.00;0.00;;;12.50;99.90;;;;;;5137212;27;20043;-84
2021/12/30 12:03:45;;;;;;;0.10;0.10;;;12.40;99.90;;;;;;5137298;27;20047;-84
2021/12/30 12:06:42;;;;;;;0.10;0.10;;;12.40;99.90;;;;;;5136784;27;20438;-84
2021/12/30 12:09:32;;;;;;;0.00;0.00;;;12.40;99.90;;;;;;5151249;27;20042;-85
2021/12/30 12:12:03;;;;;;;0.20;0.20;;;12.40;99.90;;;;;;5153058;27;20094;-85
2021/12/30 12:14:39;;;;;;;0.35;0.35;;;12.40;99.90;;;;;;5153083;27;20088;-85
2021/12/30 12:17:18;;;;;;;1.08;0.00;;;12.40;99.90;;;;;;5153236;27;20130;-85
2021/12/30 12:19:56;;;;;;;0.10;0.00;;;12.40;99.90;;;;;;5136235;27;20337;-85
2021/12/30 12:22:21;;;;;;;0.38;0.38;;;12.40;99.90;;;;;;5136015;27;20043;-86
2021/12/30 12:24:49;;;;;;;0.73;0.40;;;12.40;99.90;;;;;;5136302;27;20099;-86
2021/12/30 12:27:18;;;;;;;0.00;0.00;;;12.40;99.90;;;;;;5153406;27;20509;-86
2021/12/30 12:29:48;;;;;;;2.67;1.55;;;12.40;99.90;;;;;;5135895;27;20137;-85
2021/12/30 12:32:17;;;;;;;0.00;0.00;;;12.40;99.90;;;;;;5154074;27;20050;-86
2021/12/30 12:34:54;;;;;;;0.25;0.10;;;12.40;99.90;;;;;;5155639;27;20042;-86
2021/12/30 12:37:32;;;;;;;0.65;0.43;;;12.40;99.90;;;;;;5157610;27;20493;-86
2021/12/30 12:40:06;;;;;;;0.17;0.17;;;12.40;99.90;;;;;;5156846;27;20046;-86
2021/12/30 12:42:52;;;;;;;0.35;0.30;;;12.40;99.90;;;;;;5157220;27;20501;-86
2021/12/30 12:45:21;;;;;;;0.00;0.00;;;12.40;99.90;;;;;;5157535;27;20125;-86
2021/12/30 12:48:07;;;;;;;0.30;0.30;;;12.50;99.90;;;;;;5140046;27;20054;-85
2021/12/30 12:50:38;;;;;;;1.95;1.27;;;12.40;99.90;;;;;;5139632;27;20068;-86
2021/12/30 12:53:24;;;;;;;0.10;0.10;;;12.40;99.90;;;;;;5157162;27;20046;-86
2021/12/30 12:55:56;;;;;;;0.00;0.00;;;12.30;99.90;;;;;;5155678;27;20039;-88